Terminal Aerodrome Forecast
Issued by NWS

Home | Current Version | Previous Version | Text Only | Print | Product List | Glossary On
Versions: 1 2 3 4 5 6 7 8 9 10 11 12 13 14
000
FTUS42 TJSJ 072345
TAFJBQ
TAF
TJBQ 072345Z 0800/0824 10007KT P6SM VCSH SCT025
     FM081400 08013G18KT P6SM SCT025
     FM082300 09008KT P6SM SCT025
      AMD NOT SKED 0802/0811=

USA.gov is the U.S. government's official web portal to all federal, state and local government web resources and services.